Time;durP1;ratioP1;P1;durP2;ratioP2;P2;SDS_P1;SDS_P2;PMS_P1;PMS_P2;Temp;Humidity;BMP_temperature;BMP_pressure;BME280_temperature;BME280_humidity;BME280_pressure;Samples;Min_cycle;Max_cycle;Signal;HPM_P1;HPM_P2
2021/08/13 00:01:06;;;;;;;14.18;4.47;;;28.30;93.90;;;;;;5083436;28;20039;-54
2021/08/13 00:03:32;;;;;;;10.73;4.00;;;28.30;93.80;;;;;;5083739;28;20240;-53
2021/08/13 00:05:59;;;;;;;8.00;2.72;;;28.30;94.00;;;;;;5083576;28;20327;-51
2021/08/13 00:08:26;;;;;;;10.50;3.40;;;28.30;93.60;;;;;;5082140;28;20213;-56
2021/08/13 00:10:53;;;;;;;7.97;2.97;;;28.20;93.70;;;;;;5092427;28;20027;-52
2021/08/13 00:13:20;;;;;;;4.57;2.95;;;28.30;93.70;;;;;;5104097;28;20050;-60
2021/08/13 00:15:47;;;;;;;7.50;3.38;;;28.20;93.50;;;;;;5103637;28;20052;-53
2021/08/13 00:18:13;;;;;;;10.95;2.92;;;28.20;93.60;;;;;;5103964;28;20020;-49
2021/08/13 00:20:40;;;;;;;5.50;2.30;;;28.20;93.60;;;;;;5106111;28;20018;-58
2021/08/13 00:23:07;;;;;;;4.90;2.88;;;28.20;93.60;;;;;;5107891;28;20031;-50
2021/08/13 00:25:34;;;;;;;4.03;2.60;;;28.10;93.60;;;;;;5107424;28;20072;-52
2021/08/13 00:28:01;;;;;;;2.72;2.00;;;28.10;93.60;;;;;;5107654;28;20215;-51
2021/08/13 00:30:27;;;;;;;4.60;2.22;;;28.10;93.50;;;;;;5107366;28;20058;-51
2021/08/13 00:32:54;;;;;;;7.03;2.00;;;28.10;93.30;;;;;;5107581;28;20016;-52
2021/08/13 00:35:23;;;;;;;8.50;2.20;;;28.00;93.30;;;;;;5107331;28;20016;-51
2021/08/13 00:37:51;;;;;;;5.80;2.63;;;28.00;93.10;;;;;;5107211;28;20028;-50
2021/08/13 00:40:17;;;;;;;4.35;2.60;;;28.00;92.90;;;;;;5107301;28;20020;-50
2021/08/13 00:42:44;;;;;;;9.05;3.10;;;27.90;92.80;;;;;;5107516;28;20225;-51
2021/08/13 00:45:11;;;;;;;6.05;3.13;;;27.90;92.90;;;;;;5105923;28;20016;-49
2021/08/13 00:47:38;;;;;;;9.65;3.33;;;27.90;93.10;;;;;;5107113;28;20028;-56
2021/08/13 00:50:05;;;;;;;8.57;4.47;;;27.90;93.30;;;;;;5106710;28;20024;-58
2021/08/13 00:52:32;;;;;;;7.07;5.07;;;27.90;93.60;;;;;;5107123;28;20019;-51
2021/08/13 00:54:59;;;;;;;15.73;5.82;;;27.80;93.70;;;;;;5107155;28;20028;-47
2021/08/13 00:57:25;;;;;;;15.52;5.82;;;27.90;93.80;;;;;;5106953;28;20016;-54
2021/08/13 00:59:52;;;;;;;8.40;4.85;;;27.90;93.70;;;;;;5104777;28;20035;-53
2021/08/13 01:02:19;;;;;;;11.73;5.38;;;27.80;93.60;;;;;;5105801;28;20043;-50
2021/08/13 01:04:45;;;;;;;16.42;9.85;;;27.80;93.50;;;;;;5105719;28;20369;-52
2021/08/13 01:07:12;;;;;;;17.40;11.27;;;27.80;93.40;;;;;;5105701;28;20028;-55
2021/08/13 01:09:39;;;;;;;16.15;11.40;;;27.80;93.40;;;;;;5107343;28;20043;-51
2021/08/13 01:12:10;;;;;;;22.05;13.88;;;27.70;93.50;;;;;;5106841;28;20327;-54
2021/08/13 01:15:00;;;;;;;38.92;30.73;;;27.70;93.50;;;;;;5106994;28;20027;-54
2021/08/13 01:17:54;;;;;;;57.53;41.97;;;27.70;93.60;;;;;;5106152;28;20066;-50
2021/08/13 01:20:37;;;;;;;37.00;24.85;;;27.70;93.60;;;;;;5087047;28;20073;-50
2021/08/13 01:23:12;;;;;;;30.25;20.52;;;27.70;93.40;;;;;;5105121;28;20051;-57
2021/08/13 01:25:43;;;;;;;26.38;18.63;;;27.70;93.40;;;;;;5084408;28;20411;-50
2021/08/13 01:28:28;;;;;;;36.38;29.08;;;27.70;93.50;;;;;;5085892;28;20097;-53
2021/08/13 01:30:54;;;;;;;23.30;14.77;;;27.60;93.30;;;;;;5096531;28;20022;-52
2021/08/13 01:33:23;;;;;;;14.95;9.13;;;27.60;93.10;;;;;;5106099;28;20117;-55
2021/08/13 01:35:51;;;;;;;15.60;6.80;;;27.60;93.10;;;;;;5106171;28;20023;-53
2021/08/13 01:38:24;;;;;;;11.43;5.50;;;27.60;92.90;;;;;;5106245;28;20083;-55
2021/08/13 01:40:52;;;;;;;;;;;27.50;92.90;;;;;;5106644;28;20065;-50
2021/08/13 01:43:24;;;;;;;8.20;4.90;;;27.50;92.90;;;;;;5106092;28;19922;-51
2021/08/13 01:45:53;;;;;;;12.57;9.15;;;27.50;93.00;;;;;;5105928;28;20020;-53
2021/08/13 01:48:21;;;;;;;14.00;10.95;;;27.50;93.10;;;;;;5106065;28;20030;-51
2021/08/13 01:50:48;;;;;;;13.38;10.52;;;27.50;92.80;;;;;;5105927;28;20020;-51
2021/08/13 01:53:16;;;;;;;15.93;10.20;;;27.50;92.80;;;;;;5105954;28;20031;-52
2021/08/13 01:55:43;;;;;;;15.25;9.75;;;27.50;92.70;;;;;;5105476;28;20012;-51
2021/08/13 01:58:11;;;;;;;15.55;10.38;;;27.60;92.60;;;;;;5105902;28;20024;-51
2021/08/13 02:00:38;;;;;;;13.70;9.25;;;27.60;92.60;;;;;;5105748;28;20024;-52
2021/08/13 02:03:07;;;;;;;16.73;8.23;;;27.50;92.60;;;;;;5105658;28;20020;-54
2021/08/13 02:05:38;;;;;;;13.18;8.77;;;27.60;92.60;;;;;;5105672;28;20027;-52
2021/08/13 02:08:07;;;;;;;12.02;7.80;;;27.60;92.50;;;;;;5105651;28;20027;-53
2021/08/13 02:10:40;;;;;;;11.57;6.82;;;27.60;92.40;;;;;;5104242;28;20031;-55
2021/08/13 02:13:06;;;;;;;16.58;5.85;;;27.60;92.30;;;;;;5103809;28;20061;-48
2021/08/13 02:15:37;;;;;;;9.63;5.38;;;27.60;92.10;;;;;;5105319;28;20316;-50
2021/08/13 02:18:06;;;;;;;7.85;5.47;;;27.60;92.20;;;;;;5104440;28;20309;-52
2021/08/13 02:20:35;;;;;;;10.40;5.07;;;27.60;92.10;;;;;;5105391;28;20043;-52
2021/08/13 02:23:02;;;;;;;15.82;5.13;;;27.60;92.10;;;;;;5105323;28;20026;-53
2021/08/13 02:25:28;;;;;;;8.48;5.68;;;27.60;91.80;;;;;;5105061;28;20028;-50
2021/08/13 02:27:55;;;;;;;8.90;4.50;;;27.50;91.90;;;;;;5105295;28;20068;-53
2021/08/13 02:30:22;;;;;;;13.95;3.88;;;27.60;92.00;;;;;;5103900;28;20204;-49
2021/08/13 02:32:48;;;;;;;9.43;3.30;;;27.50;91.70;;;;;;5105205;28;20076;-51
2021/08/13 02:35:15;;;;;;;7.40;3.35;;;27.50;91.90;;;;;;5105130;28;20016;-50
2021/08/13 02:38:13;;;;;;;6.55;4.57;;;27.50;91.80;;;;;;5105151;28;20091;-55
2021/08/13 02:40:57;;;;;;;11.25;5.93;;;27.50;91.80;;;;;;5105030;28;20300;-48
2021/08/13 02:43:31;;;;;;;9.07;4.88;;;27.50;91.80;;;;;;5104229;28;20028;-54
2021/08/13 02:45:59;;;;;;;7.60;5.65;;;27.50;91.90;;;;;;5104796;28;20028;-50
2021/08/13 02:48:28;;;;;;;8.90;6.93;;;27.50;91.90;;;;;;5104742;28;20044;-52
2021/08/13 02:50:57;;;;;;;9.77;6.45;;;27.50;92.00;;;;;;5104778;28;20019;-50
2021/08/13 02:53:25;;;;;;;7.30;5.80;;;27.50;91.90;;;;;;5105317;28;20031;-50
2021/08/13 02:56:06;;;;;;;73.15;10.38;;;27.50;91.80;;;;;;5105430;28;20016;-53
2021/08/13 02:58:50;;;;;;;26.42;6.78;;;27.50;91.70;;;;;;5105380;28;20016;-50
2021/08/13 03:01:24;;;;;;;9.80;4.78;;;27.50;91.50;;;;;;5104818;28;20371;-54
2021/08/13 03:03:55;;;;;;;14.32;4.05;;;27.50;91.50;;;;;;5104868;28;20046;-55
2021/08/13 03:06:27;;;;;;;12.98;3.60;;;27.40;91.50;;;;;;5104811;28;20024;-50
2021/08/13 03:08:55;;;;;;;12.25;3.67;;;27.40;91.50;;;;;;5104753;28;20224;-51
2021/08/13 03:11:23;;;;;;;8.60;2.70;;;27.40;91.50;;;;;;5104956;28;20084;-50
2021/08/13 03:13:51;;;;;;;7.60;2.20;;;27.40;91.40;;;;;;5104821;28;20027;-51
2021/08/13 03:16:19;;;;;;;7.82;2.20;;;27.40;91.50;;;;;;5103767;28;20309;-52
2021/08/13 03:18:46;;;;;;;8.90;2.20;;;27.30;91.50;;;;;;5104606;28;20156;-48
2021/08/13 03:21:14;;;;;;;4.78;1.65;;;27.30;91.60;;;;;;5104369;28;20048;-51
2021/08/13 03:23:41;;;;;;;5.82;2.13;;;27.30;91.50;;;;;;5104635;28;20077;-53
2021/08/13 03:26:08;;;;;;;4.97;1.35;;;27.30;91.60;;;;;;5104055;28;20103;-49
2021/08/13 03:28:36;;;;;;;5.45;1.60;;;27.30;91.60;;;;;;5104501;28;20077;-52
2021/08/13 03:31:03;;;;;;;3.90;1.50;;;27.30;91.70;;;;;;5104426;28;20032;-49
2021/08/13 03:33:29;;;;;;;4.95;1.30;;;27.30;91.60;;;;;;5104499;28;20205;-51
2021/08/13 03:35:58;;;;;;;3.85;1.10;;;27.30;91.70;;;;;;5104160;28;20024;-50
2021/08/13 03:38:25;;;;;;;4.38;1.40;;;27.30;91.70;;;;;;5104392;28;20032;-55
2021/08/13 03:40:52;;;;;;;6.75;1.75;;;27.30;91.80;;;;;;5103251;28;20020;-49
2021/08/13 03:43:19;;;;;;;3.35;1.27;;;27.30;91.80;;;;;;5103208;28;20347;-53
2021/08/13 03:45:45;;;;;;;5.15;1.55;;;27.30;91.90;;;;;;5104273;28;20012;-56
2021/08/13 03:48:12;;;;;;;4.18;1.15;;;27.30;91.90;;;;;;5104266;28;20053;-50
2021/08/13 03:50:39;;;;;;;3.88;1.15;;;27.30;92.10;;;;;;5103774;28;20016;-50
2021/08/13 03:53:08;;;;;;;6.63;1.23;;;27.30;92.10;;;;;;5103848;28;20043;-50
2021/08/13 03:55:35;;;;;;;5.57;1.25;;;27.30;92.20;;;;;;5106199;28;20022;-55
2021/08/13 03:58:01;;;;;;;4.55;1.65;;;27.30;92.30;;;;;;5108110;28;20024;-51
2021/08/13 04:00:28;;;;;;;3.38;1.10;;;27.20;92.30;;;;;;5108156;28;20087;-52
2021/08/13 04:02:55;;;;;;;3.63;1.40;;;27.30;92.30;;;;;;5108375;28;20094;-51
2021/08/13 04:05:22;;;;;;;3.47;1.20;;;27.30;92.30;;;;;;5107835;28;20024;-50
2021/08/13 04:07:49;;;;;;;5.72;1.50;;;27.20;92.30;;;;;;5108033;28;20020;-52
2021/08/13 04:10:15;;;;;;;8.73;1.38;;;27.20;92.50;;;;;;5107916;28;20012;-53
2021/08/13 04:12:42;;;;;;;3.30;1.30;;;27.20;92.50;;;;;;5107815;28;20292;-51
2021/08/13 04:15:09;;;;;;;3.72;1.38;;;27.20;92.60;;;;;;5107920;28;20020;-51
2021/08/13 04:17:35;;;;;;;4.10;1.50;;;27.20;92.40;;;;;;5107926;28;20039;-51
2021/08/13 04:20:02;;;;;;;6.80;1.60;;;27.20;92.50;;;;;;5107807;28;20051;-51
2021/08/13 04:22:29;;;;;;;3.50;1.45;;;27.20;92.50;;;;;;5107669;28;20020;-50
2021/08/13 04:24:55;;;;;;;3.67;1.55;;;27.20;92.50;;;;;;5089625;28;20024;-58
2021/08/13 04:27:22;;;;;;;6.20;1.80;;;27.10;92.50;;;;;;5107248;28;20036;-49
2021/08/13 04:29:49;;;;;;;6.53;1.65;;;27.10;92.50;;;;;;5107586;28;20020;-50
2021/08/13 04:32:15;;;;;;;4.10;1.80;;;27.10;92.60;;;;;;5107448;28;20023;-47
2021/08/13 04:34:45;;;;;;;7.15;1.60;;;27.10;92.60;;;;;;5107380;28;20020;-49
2021/08/13 04:37:12;;;;;;;5.28;1.65;;;27.10;92.80;;;;;;5106413;28;20104;-55
2021/08/13 04:39:38;;;;;;;2.47;1.17;;;27.10;92.90;;;;;;5107428;28;20027;-49
2021/08/13 04:42:05;;;;;;;2.95;1.40;;;27.10;93.00;;;;;;5107170;28;20032;-60
2021/08/13 04:44:33;;;;;;;6.30;1.58;;;27.10;93.00;;;;;;5107800;28;20091;-52
2021/08/13 04:47:00;;;;;;;4.82;1.50;;;27.00;92.90;;;;;;5106619;28;20031;-50
2021/08/13 04:49:27;;;;;;;5.05;1.77;;;27.00;93.00;;;;;;5107627;28;20036;-56
2021/08/13 04:51:53;;;;;;;2.70;1.40;;;27.00;93.00;;;;;;5107193;28;20027;-50
2021/08/13 04:54:20;;;;;;;6.88;1.42;;;27.00;93.10;;;;;;5107042;28;20421;-50
2021/08/13 04:56:47;;;;;;;4.57;1.50;;;27.00;93.10;;;;;;5106922;28;20054;-50
2021/08/13 04:59:13;;;;;;;4.88;1.48;;;27.00;93.20;;;;;;5107448;28;20096;-50
2021/08/13 05:01:40;;;;;;;4.18;1.70;;;27.00;93.20;;;;;;5107195;28;20024;-50
2021/08/13 05:04:07;;;;;;;4.47;1.90;;;27.00;93.30;;;;;;5107109;28;20070;-50
2021/08/13 05:06:34;;;;;;;4.55;1.38;;;27.00;93.20;;;;;;5105706;28;20327;-54
2021/08/13 05:09:01;;;;;;;2.50;1.33;;;27.00;93.20;;;;;;5107128;28;20027;-50
2021/08/13 05:11:28;;;;;;;4.38;1.90;;;26.90;93.20;;;;;;5106628;28;20020;-52
2021/08/13 05:13:54;;;;;;;3.38;1.40;;;26.90;93.30;;;;;;5107163;28;20020;-54
2021/08/13 05:16:21;;;;;;;2.70;1.38;;;26.90;93.40;;;;;;5106727;28;20224;-51
2021/08/13 05:18:47;;;;;;;5.90;1.60;;;26.90;93.50;;;;;;5106900;28;20028;-45
2021/08/13 05:21:14;;;;;;;3.15;1.48;;;26.90;93.50;;;;;;5106925;28;20317;-47
2021/08/13 05:23:40;;;;;;;6.75;1.58;;;26.90;93.60;;;;;;5107104;28;20024;-44
2021/08/13 05:26:07;;;;;;;9.05;1.80;;;26.90;93.60;;;;;;5106217;28;20067;-51
2021/08/13 05:28:34;;;;;;;3.00;1.40;;;26.90;93.60;;;;;;5106637;28;20101;-48
2021/08/13 05:31:00;;;;;;;4.53;1.50;;;26.90;93.60;;;;;;5106316;28;20372;-50
2021/08/13 05:33:27;;;;;;;5.65;1.55;;;26.90;93.70;;;;;;5106519;28;20020;-50
2021/08/13 05:35:54;;;;;;;5.97;1.75;;;26.90;93.70;;;;;;5106238;28;20324;-50
2021/08/13 05:38:20;;;;;;;5.53;1.60;;;26.90;93.60;;;;;;5106243;28;20026;-48
2021/08/13 05:40:47;;;;;;;3.13;1.58;;;26.90;93.60;;;;;;5106199;28;20373;-48
2021/08/13 05:43:14;;;;;;;7.50;1.50;;;26.90;93.60;;;;;;5106122;28;20039;-53
2021/08/13 05:45:41;;;;;;;3.85;1.45;;;26.90;93.70;;;;;;5106253;28;20016;-53
2021/08/13 05:48:07;;;;;;;4.80;1.60;;;26.90;93.70;;;;;;5105990;28;20054;-51
2021/08/13 05:50:34;;;;;;;4.88;1.33;;;26.80;93.70;;;;;;5105783;28;20015;-52
2021/08/13 05:53:01;;;;;;;4.03;1.70;;;26.90;93.70;;;;;;5106058;28;20238;-53
2021/08/13 05:55:27;;;;;;;3.90;1.80;;;26.80;93.70;;;;;;5105926;28;20016;-62
2021/08/13 05:57:54;;;;;;;6.78;1.50;;;26.80;93.60;;;;;;5105784;28;20073;-54
2021/08/13 06:00:21;;;;;;;6.15;1.50;;;26.80;93.60;;;;;;5105720;28;20020;-51
2021/08/13 06:02:52;;;;;;;4.03;1.48;;;26.80;93.60;;;;;;5105672;28;20241;-53
2021/08/13 06:05:18;;;;;;;4.88;1.60;;;26.80;93.60;;;;;;5105476;28;20369;-55
2021/08/13 06:07:45;;;;;;;7.65;1.83;;;26.80;93.70;;;;;;5105470;28;20043;-50
2021/08/13 06:10:11;;;;;;;4.68;1.50;;;26.80;93.60;;;;;;5105482;28;20012;-54
2021/08/13 06:12:38;;;;;;;5.88;1.65;;;26.80;93.60;;;;;;5105408;28;20024;-51
2021/08/13 06:15:06;;;;;;;6.28;1.92;;;26.70;93.50;;;;;;5105405;28;20339;-50
2021/08/13 06:17:32;;;;;;;3.85;1.60;;;26.70;93.60;;;;;;5105213;28;20039;-53
2021/08/13 06:19:59;;;;;;;7.80;1.90;;;26.70;93.50;;;;;;5105276;28;20050;-50
2021/08/13 06:22:26;;;;;;;4.45;1.45;;;26.70;93.50;;;;;;5105277;28;20208;-55
2021/08/13 06:24:52;;;;;;;5.53;1.73;;;26.70;93.50;;;;;;5105153;28;20065;-58
2021/08/13 06:27:19;;;;;;;6.47;1.60;;;26.70;93.50;;;;;;5104763;28;20240;-50
2021/08/13 06:29:45;;;;;;;3.88;1.80;;;26.70;93.60;;;;;;5105158;28;20027;-56
2021/08/13 06:32:12;;;;;;;2.42;1.52;;;26.70;93.50;;;;;;5105115;28;20012;-52
2021/08/13 06:34:38;;;;;;;5.53;1.80;;;26.70;93.60;;;;;;5105433;28;20020;-59
2021/08/13 06:37:05;;;;;;;4.45;1.80;;;26.70;93.70;;;;;;5105135;28;20051;-48
2021/08/13 06:39:31;;;;;;;4.78;1.73;;;26.70;93.60;;;;;;5105429;28;20028;-54
2021/08/13 06:41:58;;;;;;;6.82;2.25;;;26.70;93.70;;;;;;5105031;28;20402;-51
2021/08/13 06:44:25;;;;;;;8.55;1.95;;;26.70;93.70;;;;;;5105274;28;20016;-50
2021/08/13 06:46:51;;;;;;;5.50;1.67;;;26.70;93.70;;;;;;5104614;28;20277;-51
2021/08/13 06:49:18;;;;;;;6.55;1.90;;;26.70;93.70;;;;;;5105070;28;20178;-52
2021/08/13 06:51:44;;;;;;;5.50;2.20;;;26.70;93.70;;;;;;5104955;28;20026;-51
2021/08/13 06:54:11;;;;;;;3.75;1.60;;;26.70;93.70;;;;;;5105138;28;20016;-56
2021/08/13 06:56:38;;;;;;;5.85;1.90;;;26.70;93.70;;;;;;5104734;28;20020;-53
2021/08/13 06:59:04;;;;;;;7.88;1.95;;;26.70;93.80;;;;;;5104986;28;20103;-50
2021/08/13 07:01:31;;;;;;;3.28;2.00;;;26.70;93.90;;;;;;5104796;28;20024;-51
2021/08/13 07:03:57;;;;;;;3.63;1.83;;;26.70;93.90;;;;;;5104895;28;20054;-50
2021/08/13 07:06:24;;;;;;;6.72;1.98;;;26.70;94.00;;;;;;5104314;28;20111;-50
2021/08/13 07:08:51;;;;;;;8.57;1.90;;;26.70;94.00;;;;;;5104474;28;20086;-50
2021/08/13 07:11:17;;;;;;;4.53;2.22;;;26.70;94.00;;;;;;5104370;28;20042;-51
2021/08/13 07:13:44;;;;;;;7.05;2.20;;;26.70;94.10;;;;;;5104530;28;20012;-50
2021/08/13 07:16:10;;;;;;;7.85;2.38;;;26.60;94.10;;;;;;5104285;28;20022;-53
2021/08/13 07:18:37;;;;;;;4.88;2.00;;;26.70;94.20;;;;;;5104777;28;20027;-52
2021/08/13 07:21:04;;;;;;;8.93;2.25;;;26.60;94.10;;;;;;5104122;28;20189;-55
2021/08/13 07:23:30;;;;;;;8.75;2.08;;;26.60;94.20;;;;;;5104284;28;20047;-54
2021/08/13 07:25:57;;;;;;;5.35;2.08;;;26.60;94.20;;;;;;5103907;28;20039;-52
2021/08/13 07:28:24;;;;;;;6.20;2.05;;;26.60;94.20;;;;;;5104285;28;20189;-56
2021/08/13 07:30:51;;;;;;;6.90;2.10;;;26.60;94.30;;;;;;5103520;28;20361;-55
2021/08/13 07:33:17;;;;;;;5.68;2.10;;;26.60;94.30;;;;;;5104323;28;20065;-51
2021/08/13 07:35:44;;;;;;;9.52;2.70;;;26.60;94.40;;;;;;5103876;28;20027;-51
2021/08/13 07:38:11;;;;;;;6.47;2.30;;;26.60;94.40;;;;;;5104249;28;20039;-51
2021/08/13 07:40:37;;;;;;;6.22;2.40;;;26.60;94.50;;;;;;5104253;28;20359;-54
2021/08/13 07:43:05;;;;;;;3.72;1.98;;;26.60;94.60;;;;;;5103853;28;20103;-50
2021/08/13 07:45:32;;;;;;;4.50;2.00;;;26.60;94.60;;;;;;5103938;28;20031;-52
2021/08/13 07:47:58;;;;;;;10.00;2.20;;;26.60;94.60;;;;;;5103966;28;20023;-51
2021/08/13 07:50:26;;;;;;;7.85;2.22;;;26.60;94.60;;;;;;5103767;28;20019;-53
2021/08/13 07:52:52;;;;;;;4.10;2.00;;;26.60;94.70;;;;;;5103830;28;20028;-52
2021/08/13 07:55:19;;;;;;;5.93;2.10;;;26.60;94.70;;;;;;5103925;28;20020;-51
2021/08/13 07:57:46;;;;;;;5.10;2.00;;;26.60;94.70;;;;;;5103851;28;20085;-50
2021/08/13 08:00:13;;;;;;;9.15;2.22;;;26.50;94.70;;;;;;5103799;28;20028;-52
2021/08/13 08:02:40;;;;;;;3.80;2.03;;;26.50;94.70;;;;;;5103759;28;20200;-57
2021/08/13 08:05:07;;;;;;;6.07;1.85;;;26.50;94.70;;;;;;5103714;28;20020;-58
2021/08/13 08:07:35;;;;;;;6.10;1.60;;;26.50;94.70;;;;;;5103636;28;20027;-52
2021/08/13 08:10:03;;;;;;;4.85;1.67;;;26.50;94.70;;;;;;5103745;28;20020;-55
2021/08/13 08:12:29;;;;;;;3.85;1.73;;;26.50;94.70;;;;;;5103563;28;20230;-62
2021/08/13 08:14:56;;;;;;;5.38;2.05;;;26.50;94.70;;;;;;5103789;28;20028;-50
2021/08/13 08:17:22;;;;;;;5.30;1.80;;;26.50;94.60;;;;;;5103617;28;20088;-50
2021/08/13 08:19:49;;;;;;;7.32;1.73;;;26.40;94.60;;;;;;5103736;28;20020;-52
2021/08/13 08:22:16;;;;;;;6.22;1.90;;;26.40;94.50;;;;;;5103285;28;20088;-54
2021/08/13 08:24:42;;;;;;;8.93;2.15;;;26.40;94.50;;;;;;5103622;28;20095;-49
2021/08/13 08:27:09;;;;;;;6.70;1.90;;;26.40;94.70;;;;;;5103273;28;20089;-50
2021/08/13 08:29:37;;;;;;;5.47;1.90;;;26.40;94.70;;;;;;5104049;28;20337;-51
2021/08/13 08:32:04;;;;;;;6.45;1.80;;;26.40;94.70;;;;;;5103640;28;20097;-50
2021/08/13 08:34:31;;;;;;;5.80;1.83;;;26.40;94.60;;;;;;5103945;28;20118;-49
2021/08/13 08:36:58;;;;;;;5.07;1.70;;;26.40;94.40;;;;;;5103531;28;20024;-50
2021/08/13 08:39:26;;;;;;;4.10;1.60;;;26.40;94.30;;;;;;5101279;28;20039;-51
2021/08/13 08:41:53;;;;;;;9.30;1.90;;;26.40;94.20;;;;;;5104149;28;20087;-47
2021/08/13 08:44:20;;;;;;;6.95;1.50;;;26.40;94.20;;;;;;5105825;28;20067;-53
2021/08/13 08:46:47;;;;;;;6.47;1.70;;;26.40;94.10;;;;;;5105406;28;20023;-48
2021/08/13 08:49:17;;;;;;;4.35;1.55;;;26.40;94.10;;;;;;5105749;28;20027;-50
2021/08/13 08:51:45;;;;;;;5.95;1.80;;;26.40;94.10;;;;;;5105291;28;20035;-54
2021/08/13 08:54:12;;;;;;;3.72;1.80;;;26.40;94.10;;;;;;5106254;28;20081;-50
2021/08/13 08:56:39;;;;;;;6.38;2.13;;;26.40;94.10;;;;;;5106865;28;20024;-60
2021/08/13 08:59:06;;;;;;;2.90;1.83;;;26.40;94.20;;;;;;5107258;28;20024;-57
2021/08/13 09:01:34;;;;;;;5.47;1.73;;;26.30;94.10;;;;;;5106884;28;20035;-54
2021/08/13 09:04:01;;;;;;;8.68;1.77;;;26.30;94.20;;;;;;5107116;28;20030;-52
2021/08/13 09:06:28;;;;;;;5.63;1.90;;;26.30;94.20;;;;;;5106730;28;20012;-54
2021/08/13 09:08:54;;;;;;;6.50;1.98;;;26.30;94.20;;;;;;5107328;28;20024;-53
2021/08/13 09:11:21;;;;;;;7.38;2.00;;;26.30;94.30;;;;;;5106596;28;20370;-56
2021/08/13 09:14:09;;;;;;;4.93;1.70;;;26.30;94.30;;;;;;5106947;28;20032;-54
2021/08/13 09:16:37;;;;;;;3.83;1.77;;;26.30;94.30;;;;;;5106642;28;20367;-48
2021/08/13 09:19:05;;;;;;;4.88;1.73;;;26.20;94.20;;;;;;5106985;28;20044;-58
2021/08/13 09:21:33;;;;;;;7.75;2.03;;;26.30;94.20;;;;;;5106539;28;20012;-56
2021/08/13 09:24:11;;;;;;;6.00;1.80;;;26.20;94.20;;;;;;5106428;28;20313;-58
2021/08/13 09:26:43;;;;;;;4.82;2.22;;;26.20;94.20;;;;;;5106286;28;20048;-57
2021/08/13 09:29:11;;;;;;;2.75;1.90;;;26.20;94.20;;;;;;5106749;28;20016;-55
2021/08/13 09:31:38;;;;;;;5.43;1.90;;;26.20;94.30;;;;;;5106211;28;20058;-49
2021/08/13 09:34:11;;;;;;;5.68;2.08;;;26.20;94.30;;;;;;5106742;28;20024;-49
2021/08/13 09:36:52;;;;;;;6.28;1.88;;;26.20;94.30;;;;;;5106263;28;20020;-52
2021/08/13 09:39:40;;;;;;;3.75;1.90;;;26.20;94.30;;;;;;5106614;28;20056;-53
2021/08/13 09:42:09;;;;;;;7.53;1.98;;;26.20;94.30;;;;;;5106113;28;20016;-51
2021/08/13 09:44:38;;;;;;;6.85;2.10;;;26.20;94.30;;;;;;5106577;28;20206;-53
2021/08/13 09:47:11;;;;;;;6.43;2.30;;;26.20;94.40;;;;;;5105986;28;20089;-50
2021/08/13 09:49:41;;;;;;;5.93;2.20;;;26.10;94.30;;;;;;5106325;28;20052;-52
2021/08/13 09:52:18;;;;;;;5.50;1.98;;;26.10;94.40;;;;;;5105290;28;20024;-56
2021/08/13 09:54:46;;;;;;;7.10;2.28;;;26.10;94.40;;;;;;5105735;28;20047;-53
2021/08/13 09:57:16;;;;;;;7.50;2.30;;;26.10;94.40;;;;;;5105589;28;20019;-57
2021/08/13 10:00:02;;;;;;;6.65;2.22;;;26.10;94.50;;;;;;5105760;28;20206;-52
2021/08/13 10:02:39;;;;;;;5.07;2.60;;;26.10;94.60;;;;;;5105529;28;20044;-53
2021/08/13 10:05:27;;;;;;;5.90;2.50;;;26.10;94.60;;;;;;5105521;28;20020;-57
2021/08/13 10:08:00;;;;;;;7.82;2.75;;;26.10;94.60;;;;;;5105689;28;20051;-52
2021/08/13 10:10:31;;;;;;;7.93;2.88;;;26.10;94.50;;;;;;5105391;28;20016;-54
2021/08/13 10:12:59;;;;;;;8.32;2.80;;;26.00;94.60;;;;;;5105672;28;20028;-50
2021/08/13 10:15:43;;;;;;;5.13;2.70;;;26.00;94.50;;;;;;5105537;28;20186;-54
2021/08/13 10:18:14;;;;;;;4.65;2.45;;;26.00;94.50;;;;;;5105605;28;20028;-54
2021/08/13 10:20:47;;;;;;;8.80;2.60;;;26.00;94.40;;;;;;5105396;28;20095;-54
2021/08/13 10:23:15;;;;;;;5.93;2.72;;;26.00;94.40;;;;;;5105440;28;20028;-50
2021/08/13 10:25:42;;;;;;;4.80;2.60;;;26.00;94.40;;;;;;5105465;28;20027;-49
2021/08/13 10:28:09;;;;;;;5.43;2.72;;;26.00;94.30;;;;;;5105172;28;20052;-51
2021/08/13 10:30:36;;;;;;;6.57;2.70;;;26.00;94.30;;;;;;5105066;28;20321;-53
2021/08/13 10:33:03;;;;;;;5.97;2.30;;;25.90;94.30;;;;;;5105360;28;20234;-53
2021/08/13 10:35:35;;;;;;;4.93;2.42;;;26.00;94.40;;;;;;5104921;28;20016;-53
2021/08/13 10:38:02;;;;;;;;;;;25.90;94.40;;;;;;5105653;28;20034;-52
2021/08/13 10:40:31;;;;;;;11.15;2.50;;;26.00;94.40;;;;;;5105107;28;20278;-50
2021/08/13 10:43:00;;;;;;;6.47;3.13;;;26.00;94.40;;;;;;5105039;28;20094;-53
2021/08/13 10:45:32;;;;;;;10.88;2.60;;;25.90;94.30;;;;;;5105002;28;20027;-51
2021/08/13 10:48:04;;;;;;;8.75;2.30;;;25.90;94.30;;;;;;5105109;28;20208;-55
2021/08/13 10:50:32;;;;;;;4.45;2.20;;;25.90;94.30;;;;;;5104623;28;20087;-49
2021/08/13 10:52:59;;;;;;;3.13;2.10;;;25.90;94.50;;;;;;5104942;28;20023;-50
2021/08/13 10:55:56;;;;;;;5.60;2.00;;;25.90;94.20;;;;;;5104510;28;20016;-52
2021/08/13 10:58:40;;;;;;;9.57;2.08;;;25.90;94.10;;;;;;5104767;28;20016;-54
2021/08/13 11:01:12;;;;;;;11.52;2.33;;;25.90;94.10;;;;;;5104349;28;20024;-49
2021/08/13 11:03:54;;;;;;;7.88;2.30;;;25.90;94.20;;;;;;5104561;28;20028;-52
2021/08/13 11:06:39;;;;;;;7.38;2.70;;;25.90;94.20;;;;;;5104008;28;20019;-54
2021/08/13 11:09:13;;;;;;;10.02;3.40;;;25.90;94.20;;;;;;5104323;28;20081;-51
2021/08/13 11:11:52;;;;;;;12.65;2.97;;;25.90;94.20;;;;;;5104406;28;20015;-50
2021/08/13 11:14:23;;;;;;;14.13;2.78;;;25.90;94.20;;;;;;5104802;28;20020;-52
2021/08/13 11:16:51;;;;;;;13.67;2.93;;;25.90;94.20;;;;;;5104269;28;20032;-52
2021/08/13 11:19:19;;;;;;;7.22;2.58;;;26.00;94.30;;;;;;5104775;28;20027;-52
2021/08/13 11:21:51;;;;;;;8.77;2.42;;;25.90;94.20;;;;;;5104265;28;20034;-56
2021/08/13 11:24:23;;;;;;;10.95;5.18;;;25.90;94.20;;;;;;5104770;28;20263;-62
2021/08/13 11:26:58;;;;;;;12.57;5.85;;;26.00;94.20;;;;;;5104085;28;20044;-51
2021/08/13 11:29:31;;;;;;;5.45;3.45;;;25.90;94.20;;;;;;5104311;28;20020;-51
2021/08/13 11:32:01;;;;;;;7.47;3.10;;;26.00;94.30;;;;;;5104361;28;20023;-55
2021/08/13 11:34:51;;;;;;;5.03;3.13;;;26.00;94.30;;;;;;5104379;28;20024;-50
2021/08/13 11:37:43;;;;;;;8.75;3.40;;;26.00;94.30;;;;;;5103914;28;20340;-56
2021/08/13 11:40:13;;;;;;;7.67;3.90;;;26.00;94.20;;;;;;5103921;28;20094;-50
2021/08/13 11:42:54;;;;;;;7.13;3.47;;;26.10;94.30;;;;;;5104141;28;20318;-50
2021/08/13 11:45:32;;;;;;;7.03;3.30;;;26.10;94.30;;;;;;5103903;28;20028;-50
2021/08/13 11:48:02;;;;;;;10.30;3.47;;;26.20;94.20;;;;;;5103956;28;20016;-54
2021/08/13 11:50:29;;;;;;;7.55;2.45;;;26.40;93.80;;;;;;5103705;28;20073;-50
2021/08/13 11:52:56;;;;;;;8.68;2.92;;;26.50;93.60;;;;;;5103824;28;20020;-54
2021/08/13 11:55:24;;;;;;;8.65;2.83;;;26.60;93.00;;;;;;5103887;28;20024;-50
2021/08/13 11:57:52;;;;;;;4.00;2.67;;;26.60;93.10;;;;;;5103857;28;20024;-51
2021/08/13 12:00:24;;;;;;;6.40;2.80;;;26.60;93.10;;;;;;5103847;28;20332;-52
2021/08/13 12:03:05;;;;;;;9.43;2.65;;;26.60;93.20;;;;;;5104077;28;20032;-56
2021/08/13 12:05:37;;;;;;;9.40;2.35;;;26.60;93.30;;;;;;5104208;28;20024;-55
2021/08/13 12:08:08;;;;;;;3.05;1.75;;;26.60;93.60;;;;;;5104521;28;20024;-55
2021/08/13 12:10:35;;;;;;;4.65;2.28;;;26.70;93.20;;;;;;5104032;28;20096;-54
2021/08/13 12:13:09;;;;;;;6.93;2.33;;;26.70;93.10;;;;;;5104154;28;20043;-48
2021/08/13 12:15:37;;;;;;;5.43;2.38;;;26.80;93.20;;;;;;5104980;28;20194;-51
2021/08/13 12:18:05;;;;;;;6.35;2.00;;;26.80;92.80;;;;;;5108191;28;20122;-53
2021/08/13 12:20:34;;;;;;;4.30;1.67;;;26.90;93.00;;;;;;5107982;28;20320;-60
2021/08/13 12:23:08;;;;;;;4.40;1.83;;;26.90;93.10;;;;;;5108059;28;20169;-49
2021/08/13 12:25:45;;;;;;;2.58;1.77;;;26.90;93.10;;;;;;5107783;28;20042;-50
2021/08/13 12:28:15;;;;;;;6.32;2.28;;;27.00;93.10;;;;;;5106264;28;20036;-55
2021/08/13 12:30:42;;;;;;;6.10;2.30;;;27.00;93.10;;;;;;5107608;28;20083;-48
2021/08/13 12:33:19;;;;;;;2.88;1.85;;;27.10;93.00;;;;;;5107786;28;20027;-50
2021/08/13 12:35:47;;;;;;;3.63;1.92;;;27.10;93.00;;;;;;5107360;28;20020;-50
2021/08/13 12:38:15;;;;;;;5.63;2.70;;;27.20;93.00;;;;;;5107311;28;20059;-57
2021/08/13 12:40:54;;;;;;;4.82;2.40;;;27.30;93.40;;;;;;5107635;28;20310;-54
2021/08/13 12:43:21;;;;;;;3.30;1.73;;;27.30;93.20;;;;;;5107596;28;20304;-52
2021/08/13 12:45:51;;;;;;;3.13;1.63;;;27.30;92.90;;;;;;5107541;28;20020;-54
2021/08/13 12:48:19;;;;;;;3.83;1.58;;;27.40;92.80;;;;;;5107305;28;20080;-50
2021/08/13 12:50:46;;;;;;;3.63;2.00;;;27.40;92.50;;;;;;5107618;28;20019;-51
2021/08/13 12:53:14;;;;;;;3.65;1.90;;;27.40;92.20;;;;;;5107319;28;20028;-51
2021/08/13 12:55:51;;;;;;;6.63;1.98;;;27.50;92.50;;;;;;5106887;28;20012;-56